sensor_id;sensor_type;location;lat;lon;timestamp;temperature;humidity
15355;DHT22;7777;52.254;9.618;2023-12-04T00:01:19;-0.20;99.90
15355;DHT22;7777;52.254;9.618;2023-12-04T00:03:45;-0.20;99.90
15355;DHT22;7777;52.254;9.618;2023-12-04T00:06:12;-0.20;99.90
15355;DHT22;7777;52.254;9.618;2023-12-04T00:08:39;-0.20;99.90
15355;DHT22;7777;52.254;9.618;2023-12-04T00:11:05;-0.20;99.90
15355;DHT22;7777;52.254;9.618;2023-12-04T00:13:32;-0.20;99.90
15355;DHT22;7777;52.254;9.618;2023-12-04T00:15:58;-0.10;99.90
15355;DHT22;7777;52.254;9.618;2023-12-04T00:18:24;-0.10;99.90
15355;DHT22;7777;52.254;9.618;2023-12-04T00:20:50;-0.20;99.90
15355;DHT22;7777;52.254;9.618;2023-12-04T00:23:16;-0.10;99.90
15355;DHT22;7777;52.254;9.618;2023-12-04T00:25:41;-0.10;99.90
15355;DHT22;7777;52.254;9.618;2023-12-04T00:28:07;-0.10;99.90
15355;DHT22;7777;52.254;9.618;2023-12-04T00:30:33;-0.10;99.90
15355;DHT22;7777;52.254;9.618;2023-12-04T00:32:59;-0.10;99.90
15355;DHT22;7777;52.254;9.618;2023-12-04T00:35:25;-0.10;99.90
15355;DHT22;7777;52.254;9.618;2023-12-04T00:37:51;0.00;99.90
15355;DHT22;7777;52.254;9.618;2023-12-04T00:40:17;0.00;99.90
15355;DHT22;7777;52.254;9.618;2023-12-04T00:42:42;0.00;99.90
15355;DHT22;7777;52.254;9.618;2023-12-04T00:45:08;0.00;99.90
15355;DHT22;7777;52.254;9.618;2023-12-04T00:47:34;0.00;99.90
15355;DHT22;7777;52.254;9.618;2023-12-04T00:50:00;0.00;99.90
15355;DHT22;7777;52.254;9.618;2023-12-04T00:52:26;0.00;99.90
15355;DHT22;7777;52.254;9.618;2023-12-04T00:54:52;0.10;99.90
15355;DHT22;7777;52.254;9.618;2023-12-04T00:57:19;0.00;99.90
15355;DHT22;7777;52.254;9.618;2023-12-04T00:59:44;0.00;99.90
15355;DHT22;7777;52.254;9.618;2023-12-04T01:02:10;0.00;99.90
15355;DHT22;7777;52.254;9.618;2023-12-04T01:04:38;0.00;99.90
15355;DHT22;7777;52.254;9.618;2023-12-04T01:07:05;0.00;99.90
15355;DHT22;7777;52.254;9.618;2023-12-04T01:09:31;0.10;99.90
15355;DHT22;7777;52.254;9.618;2023-12-04T01:11:56;0.10;99.90
15355;DHT22;7777;52.254;9.618;2023-12-04T01:14:22;0.10;99.90
15355;DHT22;7777;52.254;9.618;2023-12-04T01:16:48;0.10;99.90
15355;DHT22;7777;52.254;9.618;2023-12-04T01:19:13;0.10;99.90
15355;DHT22;7777;52.254;9.618;2023-12-04T01:21:42;0.10;99.90
15355;DHT22;7777;52.254;9.618;2023-12-04T01:24:08;0.10;99.90
15355;DHT22;7777;52.254;9.618;2023-12-04T01:26:34;0.00;99.90
15355;DHT22;7777;52.254;9.618;2023-12-04T01:29:00;0.00;99.90
15355;DHT22;7777;52.254;9.618;2023-12-04T01:31:25;0.00;99.90
15355;DHT22;7777;52.254;9.618;2023-12-04T01:33:51;0.00;99.90
15355;DHT22;7777;52.254;9.618;2023-12-04T01:36:18;0.00;99.90
15355;DHT22;7777;52.254;9.618;2023-12-04T01:38:43;0.00;99.90
15355;DHT22;7777;52.254;9.618;2023-12-04T01:41:09;0.00;99.90
15355;DHT22;7777;52.254;9.618;2023-12-04T01:43:36;0.00;99.90
15355;DHT22;7777;52.254;9.618;2023-12-04T01:46:02;0.00;99.90
15355;DHT22;7777;52.254;9.618;2023-12-04T01:48:28;0.00;99.90
15355;DHT22;7777;52.254;9.618;2023-12-04T01:50:55;0.00;99.90
15355;DHT22;7777;52.254;9.618;2023-12-04T01:53:23;0.00;99.90
15355;DHT22;7777;52.254;9.618;2023-12-04T01:55:49;0.00;99.90
15355;DHT22;7777;52.254;9.618;2023-12-04T01:58:15;0.00;99.90
15355;DHT22;7777;52.254;9.618;2023-12-04T02:00:42;0.00;99.90
15355;DHT22;7777;52.254;9.618;2023-12-04T02:03:09;0.00;99.90
15355;DHT22;7777;52.254;9.618;2023-12-04T02:05:36;0.00;99.90
15355;DHT22;7777;52.254;9.618;2023-12-04T02:08:04;0.00;99.90
15355;DHT22;7777;52.254;9.618;2023-12-04T02:10:29;0.00;99.90
15355;DHT22;7777;52.254;9.618;2023-12-04T02:12:56;-0.10;99.90
15355;DHT22;7777;52.254;9.618;2023-12-04T02:15:22;-0.10;99.90
15355;DHT22;7777;52.254;9.618;2023-12-04T02:17:49;-0.10;99.90
15355;DHT22;7777;52.254;9.618;2023-12-04T02:20:15;-0.10;99.90
15355;DHT22;7777;52.254;9.618;2023-12-04T02:22:42;0.00;99.90
15355;DHT22;7777;52.254;9.618;2023-12-04T02:25:09;-0.10;99.90
15355;DHT22;7777;52.254;9.618;2023-12-04T02:27:47;0.00;99.90
15355;DHT22;7777;52.254;9.618;2023-12-04T02:30:18;-0.10;99.90
15355;DHT22;7777;52.254;9.618;2023-12-04T02:32:47;-0.10;99.90
15355;DHT22;7777;52.254;9.618;2023-12-04T02:35:14;-0.10;99.90
15355;DHT22;7777;52.254;9.618;2023-12-04T02:37:44;0.00;99.90
15355;DHT22;7777;52.254;9.618;2023-12-04T02:40:11;-0.10;99.90
15355;DHT22;7777;52.254;9.618;2023-12-04T02:42:37;-0.10;99.90
15355;DHT22;7777;52.254;9.618;2023-12-04T02:45:03;-0.10;99.90
15355;DHT22;7777;52.254;9.618;2023-12-04T02:47:29;-0.10;99.90
15355;DHT22;7777;52.254;9.618;2023-12-04T02:49:55;-0.10;99.90
15355;DHT22;7777;52.254;9.618;2023-12-04T02:52:21;-0.10;99.90
15355;DHT22;7777;52.254;9.618;2023-12-04T02:54:47;-0.10;99.90
15355;DHT22;7777;52.254;9.618;2023-12-04T02:57:13;-0.10;99.90
15355;DHT22;7777;52.254;9.618;2023-12-04T02:59:38;-0.10;99.90
15355;DHT22;7777;52.254;9.618;2023-12-04T03:02:04;-0.10;99.90
15355;DHT22;7777;52.254;9.618;2023-12-04T03:04:31;-0.10;99.90
15355;DHT22;7777;52.254;9.618;2023-12-04T03:06:57;-0.10;99.90
15355;DHT22;7777;52.254;9.618;2023-12-04T03:09:23;-0.10;99.90
15355;DHT22;7777;52.254;9.618;2023-12-04T03:11:49;-0.10;99.90
15355;DHT22;7777;52.254;9.618;2023-12-04T03:14:14;-0.10;99.90
15355;DHT22;7777;52.254;9.618;2023-12-04T03:16:40;-0.10;99.90
15355;DHT22;7777;52.254;9.618;2023-12-04T03:19:06;-0.10;99.90
15355;DHT22;7777;52.254;9.618;2023-12-04T03:21:31;-0.10;99.90
15355;DHT22;7777;52.254;9.618;2023-12-04T03:23:57;-0.10;99.90
15355;DHT22;7777;52.254;9.618;2023-12-04T03:26:23;-0.10;99.90
15355;DHT22;7777;52.254;9.618;2023-12-04T03:28:48;-0.10;99.90
15355;DHT22;7777;52.254;9.618;2023-12-04T03:31:14;-0.10;99.90
15355;DHT22;7777;52.254;9.618;2023-12-04T03:33:40;-0.10;99.90
15355;DHT22;7777;52.254;9.618;2023-12-04T03:36:07;-0.10;99.90
15355;DHT22;7777;52.254;9.618;2023-12-04T03:38:34;-0.10;99.90
15355;DHT22;7777;52.254;9.618;2023-12-04T03:41:00;0.00;99.90
15355;DHT22;7777;52.254;9.618;2023-12-04T03:43:25;0.00;99.90
15355;DHT22;7777;52.254;9.618;2023-12-04T03:45:51;0.00;99.90
15355;DHT22;7777;52.254;9.618;2023-12-04T03:48:17;0.00;99.90
15355;DHT22;7777;52.254;9.618;2023-12-04T03:50:43;0.00;99.90
15355;DHT22;7777;52.254;9.618;2023-12-04T03:53:08;0.00;99.90
15355;DHT22;7777;52.254;9.618;2023-12-04T03:55:34;0.00;99.90
15355;DHT22;7777;52.254;9.618;2023-12-04T03:58:00;0.00;99.90
15355;DHT22;7777;52.254;9.618;2023-12-04T04:00:25;0.00;99.90
15355;DHT22;7777;52.254;9.618;2023-12-04T04:02:51;0.00;99.90
15355;DHT22;7777;52.254;9.618;2023-12-04T04:05:17;0.00;99.90
15355;DHT22;7777;52.254;9.618;2023-12-04T04:07:43;0.00;99.90
15355;DHT22;7777;52.254;9.618;2023-12-04T04:10:09;0.00;99.90
15355;DHT22;7777;52.254;9.618;2023-12-04T04:12:35;0.10;99.90
15355;DHT22;7777;52.254;9.618;2023-12-04T04:15:01;0.10;99.90
15355;DHT22;7777;52.254;9.618;2023-12-04T04:17:26;0.10;99.90
15355;DHT22;7777;52.254;9.618;2023-12-04T04:19:53;0.10;99.90
15355;DHT22;7777;52.254;9.618;2023-12-04T04:22:20;0.10;99.90
15355;DHT22;7777;52.254;9.618;2023-12-04T04:24:47;0.10;99.90
15355;DHT22;7777;52.254;9.618;2023-12-04T04:27:13;0.10;99.90
15355;DHT22;7777;52.254;9.618;2023-12-04T04:29:39;0.10;99.90
15355;DHT22;7777;52.254;9.618;2023-12-04T04:32:05;0.10;99.90
15355;DHT22;7777;52.254;9.618;2023-12-04T04:34:31;0.10;99.90
15355;DHT22;7777;52.254;9.618;2023-12-04T04:36:57;0.10;99.90
15355;DHT22;7777;52.254;9.618;2023-12-04T04:39:23;0.10;99.90
15355;DHT22;7777;52.254;9.618;2023-12-04T04:41:48;0.10;99.90
15355;DHT22;7777;52.254;9.618;2023-12-04T04:44:14;0.10;99.90
15355;DHT22;7777;52.254;9.618;2023-12-04T04:46:40;0.10;99.90
15355;DHT22;7777;52.254;9.618;2023-12-04T04:49:06;0.10;99.90
15355;DHT22;7777;52.254;9.618;2023-12-04T04:51:33;0.10;99.90
15355;DHT22;7777;52.254;9.618;2023-12-04T04:54:02;0.10;99.90
15355;DHT22;7777;52.254;9.618;2023-12-04T04:56:29;0.10;99.90
15355;DHT22;7777;52.254;9.618;2023-12-04T04:58:55;0.10;99.90
15355;DHT22;7777;52.254;9.618;2023-12-04T05:01:21;0.10;99.90
15355;DHT22;7777;52.254;9.618;2023-12-04T05:03:47;0.10;99.90
15355;DHT22;7777;52.254;9.618;2023-12-04T05:06:14;0.20;99.90
15355;DHT22;7777;52.254;9.618;2023-12-04T05:08:40;0.10;99.90
15355;DHT22;7777;52.254;9.618;2023-12-04T05:11:06;0.20;99.90
15355;DHT22;7777;52.254;9.618;2023-12-04T05:13:32;0.10;99.90
15355;DHT22;7777;52.254;9.618;2023-12-04T05:15:58;0.10;99.90
15355;DHT22;7777;52.254;9.618;2023-12-04T05:18:23;0.20;99.90
15355;DHT22;7777;52.254;9.618;2023-12-04T05:20:49;0.10;99.90
15355;DHT22;7777;52.254;9.618;2023-12-04T05:23:15;0.20;99.90
15355;DHT22;7777;52.254;9.618;2023-12-04T05:25:42;0.20;99.90
15355;DHT22;7777;52.254;9.618;2023-12-04T05:28:08;0.20;99.90
15355;DHT22;7777;52.254;9.618;2023-12-04T05:30:34;0.20;99.90
15355;DHT22;7777;52.254;9.618;2023-12-04T05:33:00;0.30;99.90
15355;DHT22;7777;52.254;9.618;2023-12-04T05:35:26;0.20;99.90
15355;DHT22;7777;52.254;9.618;2023-12-04T05:37:52;0.30;99.90
15355;DHT22;7777;52.254;9.618;2023-12-04T05:40:18;0.30;99.90
15355;DHT22;7777;52.254;9.618;2023-12-04T05:42:43;0.30;99.90
15355;DHT22;7777;52.254;9.618;2023-12-04T05:45:09;0.30;99.90
15355;DHT22;7777;52.254;9.618;2023-12-04T05:47:36;0.30;99.90
15355;DHT22;7777;52.254;9.618;2023-12-04T05:50:02;0.30;99.90
15355;DHT22;7777;52.254;9.618;2023-12-04T05:52:30;0.30;99.90
15355;DHT22;7777;52.254;9.618;2023-12-04T05:54:55;0.30;99.90
15355;DHT22;7777;52.254;9.618;2023-12-04T05:57:21;0.40;99.90
15355;DHT22;7777;52.254;9.618;2023-12-04T05:59:47;0.40;99.90
15355;DHT22;7777;52.254;9.618;2023-12-04T06:02:13;0.40;99.90
15355;DHT22;7777;52.254;9.618;2023-12-04T06:04:41;0.40;99.90
15355;DHT22;7777;52.254;9.618;2023-12-04T06:07:07;0.40;99.90
15355;DHT22;7777;52.254;9.618;2023-12-04T06:09:33;0.40;99.90
15355;DHT22;7777;52.254;9.618;2023-12-04T06:11:59;0.40;99.90
15355;DHT22;7777;52.254;9.618;2023-12-04T06:14:31;0.50;99.90
15355;DHT22;7777;52.254;9.618;2023-12-04T06:16:57;0.50;99.90
15355;DHT22;7777;52.254;9.618;2023-12-04T06:19:24;0.50;99.90
15355;DHT22;7777;52.254;9.618;2023-12-04T06:21:49;0.50;99.90
15355;DHT22;7777;52.254;9.618;2023-12-04T06:24:16;0.50;99.90
15355;DHT22;7777;52.254;9.618;2023-12-04T06:26:42;0.50;99.90
15355;DHT22;7777;52.254;9.618;2023-12-04T06:29:10;0.50;99.90
15355;DHT22;7777;52.254;9.618;2023-12-04T06:31:37;0.50;99.90
15355;DHT22;7777;52.254;9.618;2023-12-04T06:34:03;0.50;99.90
15355;DHT22;7777;52.254;9.618;2023-12-04T06:36:31;0.50;99.90
15355;DHT22;7777;52.254;9.618;2023-12-04T06:39:02;0.50;99.90
15355;DHT22;7777;52.254;9.618;2023-12-04T06:41:30;0.60;99.90
15355;DHT22;7777;52.254;9.618;2023-12-04T06:43:56;0.50;99.90
15355;DHT22;7777;52.254;9.618;2023-12-04T06:46:23;0.60;99.90
15355;DHT22;7777;52.254;9.618;2023-12-04T06:48:54;0.60;99.90
15355;DHT22;7777;52.254;9.618;2023-12-04T06:51:23;0.60;99.90
15355;DHT22;7777;52.254;9.618;2023-12-04T06:53:49;0.60;99.90
15355;DHT22;7777;52.254;9.618;2023-12-04T06:56:15;0.60;99.90
15355;DHT22;7777;52.254;9.618;2023-12-04T06:58:42;0.60;99.90
15355;DHT22;7777;52.254;9.618;2023-12-04T07:01:09;0.60;99.90
15355;DHT22;7777;52.254;9.618;2023-12-04T07:03:36;0.60;99.90
15355;DHT22;7777;52.254;9.618;2023-12-04T07:06:02;0.60;99.90
15355;DHT22;7777;52.254;9.618;2023-12-04T07:08:27;0.60;99.90
15355;DHT22;7777;52.254;9.618;2023-12-04T07:10:53;0.60;99.90
15355;DHT22;7777;52.254;9.618;2023-12-04T07:13:19;0.70;99.90
15355;DHT22;7777;52.254;9.618;2023-12-04T07:15:44;0.70;99.90
15355;DHT22;7777;52.254;9.618;2023-12-04T07:18:10;0.70;99.90
15355;DHT22;7777;52.254;9.618;2023-12-04T07:20:36;0.70;99.90
15355;DHT22;7777;52.254;9.618;2023-12-04T07:23:01;0.70;99.90
15355;DHT22;7777;52.254;9.618;2023-12-04T07:25:28;0.70;99.90
15355;DHT22;7777;52.254;9.618;2023-12-04T07:27:53;0.70;99.90
15355;DHT22;7777;52.254;9.618;2023-12-04T07:30:19;0.70;99.90
15355;DHT22;7777;52.254;9.618;2023-12-04T07:32:46;0.70;99.90
15355;DHT22;7777;52.254;9.618;2023-12-04T07:35:13;0.70;99.90
15355;DHT22;7777;52.254;9.618;2023-12-04T07:37:39;0.70;99.90
15355;DHT22;7777;52.254;9.618;2023-12-04T07:40:06;0.70;99.90
15355;DHT22;7777;52.254;9.618;2023-12-04T07:42:34;0.70;99.90
15355;DHT22;7777;52.254;9.618;2023-12-04T07:44:59;0.70;99.90
15355;DHT22;7777;52.254;9.618;2023-12-04T07:47:25;0.70;99.90
15355;DHT22;7777;52.254;9.618;2023-12-04T07:49:51;0.70;99.90
15355;DHT22;7777;52.254;9.618;2023-12-04T07:52:17;0.70;99.90
15355;DHT22;7777;52.254;9.618;2023-12-04T07:54:43;0.70;99.90
15355;DHT22;7777;52.254;9.618;2023-12-04T07:57:09;0.70;99.90
15355;DHT22;7777;52.254;9.618;2023-12-04T07:59:35;0.70;99.90
15355;DHT22;7777;52.254;9.618;2023-12-04T08:02:00;0.70;99.90
15355;DHT22;7777;52.254;9.618;2023-12-04T08:04:27;0.70;99.90
15355;DHT22;7777;52.254;9.618;2023-12-04T08:06:53;0.70;99.90
15355;DHT22;7777;52.254;9.618;2023-12-04T08:09:19;0.70;99.90
15355;DHT22;7777;52.254;9.618;2023-12-04T08:11:47;0.70;99.90
15355;DHT22;7777;52.254;9.618;2023-12-04T08:14:12;0.70;99.90
15355;DHT22;7777;52.254;9.618;2023-12-04T08:16:39;0.70;99.90
15355;DHT22;7777;52.254;9.618;2023-12-04T08:19:05;0.70;99.90
15355;DHT22;7777;52.254;9.618;2023-12-04T08:21:31;0.70;99.90
15355;DHT22;7777;52.254;9.618;2023-12-04T08:23:57;0.80;99.90
15355;DHT22;7777;52.254;9.618;2023-12-04T08:26:24;0.80;99.90
15355;DHT22;7777;52.254;9.618;2023-12-04T08:28:53;0.80;99.90
15355;DHT22;7777;52.254;9.618;2023-12-04T08:31:19;0.80;99.90
15355;DHT22;7777;52.254;9.618;2023-12-04T08:33:45;0.80;99.90
15355;DHT22;7777;52.254;9.618;2023-12-04T08:36:11;0.80;99.90
15355;DHT22;7777;52.254;9.618;2023-12-04T08:38:37;0.80;99.90
15355;DHT22;7777;52.254;9.618;2023-12-04T08:41:04;0.90;99.90
15355;DHT22;7777;52.254;9.618;2023-12-04T08:43:32;0.90;99.90
15355;DHT22;7777;52.254;9.618;2023-12-04T08:45:59;0.90;99.90
15355;DHT22;7777;52.254;9.618;2023-12-04T08:48:25;0.90;99.90
15355;DHT22;7777;52.254;9.618;2023-12-04T08:50:52;0.90;99.90
15355;DHT22;7777;52.254;9.618;2023-12-04T08:53:18;0.90;99.90
15355;DHT22;7777;52.254;9.618;2023-12-04T08:55:43;0.90;99.90
15355;DHT22;7777;52.254;9.618;2023-12-04T08:58:10;0.90;99.90
15355;DHT22;7777;52.254;9.618;2023-12-04T09:00:36;0.90;99.90
15355;DHT22;7777;52.254;9.618;2023-12-04T09:03:03;0.90;99.90
15355;DHT22;7777;52.254;9.618;2023-12-04T09:05:28;0.90;99.90
15355;DHT22;7777;52.254;9.618;2023-12-04T09:07:54;0.90;99.90
15355;DHT22;7777;52.254;9.618;2023-12-04T09:10:20;0.90;99.90
15355;DHT22;7777;52.254;9.618;2023-12-04T09:12:46;0.90;99.90
15355;DHT22;7777;52.254;9.618;2023-12-04T09:15:12;0.90;99.90
15355;DHT22;7777;52.254;9.618;2023-12-04T09:17:39;0.90;99.90
15355;DHT22;7777;52.254;9.618;2023-12-04T09:20:05;1.00;99.90
15355;DHT22;7777;52.254;9.618;2023-12-04T09:22:31;1.00;99.90
15355;DHT22;7777;52.254;9.618;2023-12-04T09:24:57;1.00;99.90
15355;DHT22;7777;52.254;9.618;2023-12-04T09:27:23;1.00;99.90
15355;DHT22;7777;52.254;9.618;2023-12-04T09:29:48;1.00;99.90
15355;DHT22;7777;52.254;9.618;2023-12-04T09:32:14;1.00;99.90
15355;DHT22;7777;52.254;9.618;2023-12-04T09:34:40;1.00;99.90
15355;DHT22;7777;52.254;9.618;2023-12-04T09:37:06;1.00;99.90
15355;DHT22;7777;52.254;9.618;2023-12-04T09:39:33;1.00;99.90
15355;DHT22;7777;52.254;9.618;2023-12-04T09:41:59;1.00;99.90
15355;DHT22;7777;52.254;9.618;2023-12-04T09:44:26;1.00;99.90
15355;DHT22;7777;52.254;9.618;2023-12-04T09:46:53;1.00;99.90
15355;DHT22;7777;52.254;9.618;2023-12-04T09:49:19;1.00;99.90
15355;DHT22;7777;52.254;9.618;2023-12-04T09:51:47;1.10;99.90
15355;DHT22;7777;52.254;9.618;2023-12-04T09:54:13;1.10;99.90
15355;DHT22;7777;52.254;9.618;2023-12-04T09:56:43;1.10;99.90
15355;DHT22;7777;52.254;9.618;2023-12-04T09:59:10;1.10;99.90
15355;DHT22;7777;52.254;9.618;2023-12-04T10:01:40;1.10;99.90
15355;DHT22;7777;52.254;9.618;2023-12-04T10:04:06;1.10;99.90
15355;DHT22;7777;52.254;9.618;2023-12-04T10:06:32;1.10;99.90
15355;DHT22;7777;52.254;9.618;2023-12-04T10:08:58;1.10;99.90
15355;DHT22;7777;52.254;9.618;2023-12-04T10:11:25;1.10;99.90
15355;DHT22;7777;52.254;9.618;2023-12-04T10:13:52;1.10;99.90
15355;DHT22;7777;52.254;9.618;2023-12-04T10:16:36;1.10;99.90
15355;DHT22;7777;52.254;9.618;2023-12-04T10:21:41;1.10;99.90
15355;DHT22;7777;52.254;9.618;2023-12-04T10:24:07;1.10;99.90
15355;DHT22;7777;52.254;9.618;2023-12-04T10:26:33;1.10;99.90
15355;DHT22;7777;52.254;9.618;2023-12-04T10:29:01;1.10;99.90
15355;DHT22;7777;52.254;9.618;2023-12-04T10:31:34;1.20;99.90
15355;DHT22;7777;52.254;9.618;2023-12-04T10:34:03;1.20;99.90
15355;DHT22;7777;52.254;9.618;2023-12-04T10:36:35;1.20;99.90
15355;DHT22;7777;52.254;9.618;2023-12-04T10:39:02;1.20;99.90
15355;DHT22;7777;52.254;9.618;2023-12-04T10:41:31;1.20;99.90
15355;DHT22;7777;52.254;9.618;2023-12-04T10:43:57;1.30;99.90
15355;DHT22;7777;52.254;9.618;2023-12-04T10:46:27;1.30;99.90
15355;DHT22;7777;52.254;9.618;2023-12-04T10:48:53;1.30;99.90
15355;DHT22;7777;52.254;9.618;2023-12-04T10:51:20;1.30;99.90
15355;DHT22;7777;52.254;9.618;2023-12-04T10:53:51;1.30;99.90
15355;DHT22;7777;52.254;9.618;2023-12-04T10:56:23;1.30;99.90
15355;DHT22;7777;52.254;9.618;2023-12-04T10:58:52;1.30;99.90
15355;DHT22;7777;52.254;9.618;2023-12-04T11:01:19;1.40;99.90
15355;DHT22;7777;52.254;9.618;2023-12-04T11:03:47;1.40;99.90
15355;DHT22;7777;52.254;9.618;2023-12-04T11:06:16;1.40;99.90
15355;DHT22;7777;52.254;9.618;2023-12-04T11:08:47;1.40;99.90
15355;DHT22;7777;52.254;9.618;2023-12-04T11:11:35;1.40;99.90
15355;DHT22;7777;52.254;9.618;2023-12-04T11:14:04;1.40;99.90
15355;DHT22;7777;52.254;9.618;2023-12-04T11:16:49;1.40;99.90
15355;DHT22;7777;52.254;9.618;2023-12-04T11:19:45;1.40;99.90
15355;DHT22;7777;52.254;9.618;2023-12-04T11:22:17;1.40;99.90
15355;DHT22;7777;52.254;9.618;2023-12-04T11:24:48;1.40;99.90
15355;DHT22;7777;52.254;9.618;2023-12-04T11:27:16;1.40;99.90
15355;DHT22;7777;52.254;9.618;2023-12-04T11:29:47;1.50;99.90
15355;DHT22;7777;52.254;9.618;2023-12-04T11:32:17;1.50;99.90
15355;DHT22;7777;52.254;9.618;2023-12-04T11:34:50;1.50;99.90
15355;DHT22;7777;52.254;9.618;2023-12-04T11:37:19;1.40;99.90
15355;DHT22;7777;52.254;9.618;2023-12-04T11:39:49;1.40;99.90
15355;DHT22;7777;52.254;9.618;2023-12-04T11:42:25;1.40;99.90
15355;DHT22;7777;52.254;9.618;2023-12-04T11:45:00;1.40;99.90
15355;DHT22;7777;52.254;9.618;2023-12-04T11:47:28;1.40;99.90
15355;DHT22;7777;52.254;9.618;2023-12-04T11:49:53;1.40;99.90
15355;DHT22;7777;52.254;9.618;2023-12-04T11:52:33;1.40;99.90
15355;DHT22;7777;52.254;9.618;2023-12-04T11:55:09;1.40;99.90
15355;DHT22;7777;52.254;9.618;2023-12-04T11:57:36;1.40;99.90
15355;DHT22;7777;52.254;9.618;2023-12-04T12:02:40;1.40;99.90
15355;DHT22;7777;52.254;9.618;2023-12-04T12:05:06;1.40;99.90
15355;DHT22;7777;52.254;9.618;2023-12-04T12:07:35;1.40;99.90
15355;DHT22;7777;52.254;9.618;2023-12-04T12:10:01;1.40;99.90
15355;DHT22;7777;52.254;9.618;2023-12-04T12:12:28;1.40;99.90
15355;DHT22;7777;52.254;9.618;2023-12-04T12:14:54;1.40;99.90
15355;DHT22;7777;52.254;9.618;2023-12-04T12:17:21;1.40;99.90
15355;DHT22;7777;52.254;9.618;2023-12-04T12:19:48;1.40;99.90
15355;DHT22;7777;52.254;9.618;2023-12-04T12:22:14;1.40;99.90
15355;DHT22;7777;52.254;9.618;2023-12-04T12:24:40;1.40;99.90
15355;DHT22;7777;52.254;9.618;2023-12-04T12:27:06;1.40;99.90
15355;DHT22;7777;52.254;9.618;2023-12-04T12:29:32;1.40;99.90
15355;DHT22;7777;52.254;9.618;2023-12-04T12:31:57;1.40;99.90
15355;DHT22;7777;52.254;9.618;2023-12-04T12:34:23;1.30;99.90
15355;DHT22;7777;52.254;9.618;2023-12-04T12:36:49;1.40;99.90
15355;DHT22;7777;52.254;9.618;2023-12-04T12:39:15;1.30;99.90
15355;DHT22;7777;52.254;9.618;2023-12-04T12:41:47;1.40;99.90
15355;DHT22;7777;52.254;9.618;2023-12-04T12:44:14;1.40;99.90
15355;DHT22;7777;52.254;9.618;2023-12-04T12:46:41;1.30;99.90
15355;DHT22;7777;52.254;9.618;2023-12-04T12:49:07;1.40;99.90
15355;DHT22;7777;52.254;9.618;2023-12-04T12:51:33;1.40;99.90
15355;DHT22;7777;52.254;9.618;2023-12-04T12:53:59;1.40;99.90
15355;DHT22;7777;52.254;9.618;2023-12-04T12:56:25;1.30;99.90
15355;DHT22;7777;52.254;9.618;2023-12-04T12:58:53;1.30;99.90
15355;DHT22;7777;52.254;9.618;2023-12-04T13:01:18;1.30;99.90
15355;DHT22;7777;52.254;9.618;2023-12-04T13:03:46;1.30;99.90
15355;DHT22;7777;52.254;9.618;2023-12-04T13:06:12;1.30;99.90
15355;DHT22;7777;52.254;9.618;2023-12-04T13:08:38;1.30;99.90
15355;DHT22;7777;52.254;9.618;2023-12-04T13:11:05;1.30;99.90
15355;DHT22;7777;52.254;9.618;2023-12-04T13:13:31;1.30;99.90
15355;DHT22;7777;52.254;9.618;2023-12-04T13:15:57;1.30;99.90
15355;DHT22;7777;52.254;9.618;2023-12-04T13:18:23;1.30;99.90
15355;DHT22;7777;52.254;9.618;2023-12-04T13:20:49;1.30;99.90
15355;DHT22;7777;52.254;9.618;2023-12-04T13:23:15;1.30;99.90
15355;DHT22;7777;52.254;9.618;2023-12-04T13:25:41;1.30;99.90
15355;DHT22;7777;52.254;9.618;2023-12-04T13:28:07;1.30;99.90
15355;DHT22;7777;52.254;9.618;2023-12-04T13:30:32;1.30;99.90
15355;DHT22;7777;52.254;9.618;2023-12-04T13:33:00;1.30;99.90
15355;DHT22;7777;52.254;9.618;2023-12-04T13:35:26;1.30;99.90
15355;DHT22;7777;52.254;9.618;2023-12-04T13:37:52;1.30;99.90
15355;DHT22;7777;52.254;9.618;2023-12-04T13:40:21;1.30;99.90
15355;DHT22;7777;52.254;9.618;2023-12-04T13:42:52;1.30;99.90
15355;DHT22;7777;52.254;9.618;2023-12-04T13:45:36;1.30;99.90
15355;DHT22;7777;52.254;9.618;2023-12-04T13:48:03;1.30;99.90
15355;DHT22;7777;52.254;9.618;2023-12-04T13:50:28;1.30;99.90
15355;DHT22;7777;52.254;9.618;2023-12-04T13:52:55;1.30;99.90
15355;DHT22;7777;52.254;9.618;2023-12-04T13:55:23;1.30;99.90
15355;DHT22;7777;52.254;9.618;2023-12-04T13:58:12;1.30;99.90
15355;DHT22;7777;52.254;9.618;2023-12-04T14:01:06;1.30;99.90
15355;DHT22;7777;52.254;9.618;2023-12-04T14:03:44;1.30;99.90
15355;DHT22;7777;52.254;9.618;2023-12-04T14:06:10;1.30;99.90
15355;DHT22;7777;52.254;9.618;2023-12-04T14:08:38;1.30;99.90
15355;DHT22;7777;52.254;9.618;2023-12-04T14:11:04;1.30;99.90
15355;DHT22;7777;52.254;9.618;2023-12-04T14:13:32;1.30;99.90
15355;DHT22;7777;52.254;9.618;2023-12-04T14:15:59;1.30;99.90
15355;DHT22;7777;52.254;9.618;2023-12-04T14:18:24;1.30;99.90
15355;DHT22;7777;52.254;9.618;2023-12-04T14:20:51;1.30;99.90
15355;DHT22;7777;52.254;9.618;2023-12-04T14:23:17;1.30;99.90
15355;DHT22;7777;52.254;9.618;2023-12-04T14:25:44;1.30;99.90
15355;DHT22;7777;52.254;9.618;2023-12-04T14:28:11;1.30;99.90
15355;DHT22;7777;52.254;9.618;2023-12-04T14:30:37;1.30;99.90
15355;DHT22;7777;52.254;9.618;2023-12-04T14:33:03;1.30;99.90
15355;DHT22;7777;52.254;9.618;2023-12-04T14:35:28;1.30;99.90
15355;DHT22;7777;52.254;9.618;2023-12-04T14:37:54;1.30;99.90
15355;DHT22;7777;52.254;9.618;2023-12-04T14:40:20;1.30;99.90
15355;DHT22;7777;52.254;9.618;2023-12-04T14:42:46;1.30;99.90
15355;DHT22;7777;52.254;9.618;2023-12-04T14:45:13;1.30;99.90
15355;DHT22;7777;52.254;9.618;2023-12-04T14:47:39;1.30;99.90
15355;DHT22;7777;52.254;9.618;2023-12-04T14:50:06;1.30;99.90
15355;DHT22;7777;52.254;9.618;2023-12-04T14:52:33;1.30;99.90
15355;DHT22;7777;52.254;9.618;2023-12-04T14:55:00;1.30;99.90
15355;DHT22;7777;52.254;9.618;2023-12-04T14:57:51;1.30;99.90
15355;DHT22;7777;52.254;9.618;2023-12-04T15:00:17;1.30;99.90
15355;DHT22;7777;52.254;9.618;2023-12-04T15:03:01;1.30;99.90
15355;DHT22;7777;52.254;9.618;2023-12-04T15:05:57;1.30;99.90
15355;DHT22;7777;52.254;9.618;2023-12-04T15:08:51;1.30;99.90
15355;DHT22;7777;52.254;9.618;2023-12-04T15:11:46;1.30;99.90
15355;DHT22;7777;52.254;9.618;2023-12-04T15:14:32;1.30;99.90
15355;DHT22;7777;52.254;9.618;2023-12-04T15:17:16;1.30;99.90
15355;DHT22;7777;52.254;9.618;2023-12-04T15:20:09;1.30;99.90
15355;DHT22;7777;52.254;9.618;2023-12-04T15:22:35;1.30;99.90
15355;DHT22;7777;52.254;9.618;2023-12-04T15:25:03;1.30;99.90
15355;DHT22;7777;52.254;9.618;2023-12-04T15:27:30;1.20;99.90
15355;DHT22;7777;52.254;9.618;2023-12-04T15:29:56;1.20;99.90
15355;DHT22;7777;52.254;9.618;2023-12-04T15:32:22;1.30;99.90
15355;DHT22;7777;52.254;9.618;2023-12-04T15:34:47;1.20;99.90
15355;DHT22;7777;52.254;9.618;2023-12-04T15:37:13;1.20;99.90
15355;DHT22;7777;52.254;9.618;2023-12-04T15:39:39;1.30;99.90
15355;DHT22;7777;52.254;9.618;2023-12-04T15:42:06;1.30;99.90
15355;DHT22;7777;52.254;9.618;2023-12-04T15:44:32;1.30;99.90
15355;DHT22;7777;52.254;9.618;2023-12-04T15:46:58;1.30;99.90
15355;DHT22;7777;52.254;9.618;2023-12-04T15:49:24;1.30;99.90
15355;DHT22;7777;52.254;9.618;2023-12-04T15:51:50;1.30;99.90
15355;DHT22;7777;52.254;9.618;2023-12-04T15:54:16;1.30;99.90
15355;DHT22;7777;52.254;9.618;2023-12-04T15:56:41;1.30;99.90
15355;DHT22;7777;52.254;9.618;2023-12-04T15:59:07;1.30;99.90
15355;DHT22;7777;52.254;9.618;2023-12-04T16:01:36;1.30;99.90
15355;DHT22;7777;52.254;9.618;2023-12-04T16:04:02;1.30;99.90
15355;DHT22;7777;52.254;9.618;2023-12-04T16:06:28;1.30;99.90